sensor_id;sensor_type;location;lat;lon;timestamp;temperature;humidity
5850;DHT22;2951;47.712;9.400;2023-07-20T00:02:23;20.70;99.90
5850;DHT22;2951;47.712;9.400;2023-07-20T00:04:49;20.60;99.90
5850;DHT22;2951;47.712;9.400;2023-07-20T00:07:16;20.40;99.90
5850;DHT22;2951;47.712;9.400;2023-07-20T00:09:43;20.40;99.90
5850;DHT22;2951;47.712;9.400;2023-07-20T00:12:09;20.30;99.90
5850;DHT22;2951;47.712;9.400;2023-07-20T00:14:36;20.20;99.90
5850;DHT22;2951;47.712;9.400;2023-07-20T00:17:03;20.10;99.90
5850;DHT22;2951;47.712;9.400;2023-07-20T00:19:30;20.10;99.90
5850;DHT22;2951;47.712;9.400;2023-07-20T00:21:58;20.00;99.90
5850;DHT22;2951;47.712;9.400;2023-07-20T00:24:25;20.00;99.90
5850;DHT22;2951;47.712;9.400;2023-07-20T00:26:52;20.00;99.90
5850;DHT22;2951;47.712;9.400;2023-07-20T00:29:19;19.90;99.90
5850;DHT22;2951;47.712;9.400;2023-07-20T00:31:46;20.00;99.90
5850;DHT22;2951;47.712;9.400;2023-07-20T00:34:13;20.00;99.90
5850;DHT22;2951;47.712;9.400;2023-07-20T00:36:40;20.00;99.90
5850;DHT22;2951;47.712;9.400;2023-07-20T00:39:07;20.00;99.90
5850;DHT22;2951;47.712;9.400;2023-07-20T00:41:34;20.00;99.90
5850;DHT22;2951;47.712;9.400;2023-07-20T00:44:02;20.10;99.90
5850;DHT22;2951;47.712;9.400;2023-07-20T00:46:28;20.10;99.90
5850;DHT22;2951;47.712;9.400;2023-07-20T00:48:55;20.20;99.90
5850;DHT22;2951;47.712;9.400;2023-07-20T00:51:23;20.30;99.90
5850;DHT22;2951;47.712;9.400;2023-07-20T00:53:50;20.30;99.90
5850;DHT22;2951;47.712;9.400;2023-07-20T00:56:16;20.30;99.90
5850;DHT22;2951;47.712;9.400;2023-07-20T00:58:43;20.30;99.90
5850;DHT22;2951;47.712;9.400;2023-07-20T01:01:10;20.20;99.90
5850;DHT22;2951;47.712;9.400;2023-07-20T01:03:37;20.30;99.90
5850;DHT22;2951;47.712;9.400;2023-07-20T01:08:32;20.30;99.90
5850;DHT22;2951;47.712;9.400;2023-07-20T01:11:03;20.30;99.90
5850;DHT22;2951;47.712;9.400;2023-07-20T01:13:33;20.30;99.90
5850;DHT22;2951;47.712;9.400;2023-07-20T01:16:00;20.30;99.90
5850;DHT22;2951;47.712;9.400;2023-07-20T01:18:27;20.20;99.90
5850;DHT22;2951;47.712;9.400;2023-07-20T01:20:55;20.10;99.90
5850;DHT22;2951;47.712;9.400;2023-07-20T01:31:33;19.70;99.90
5850;DHT22;2951;47.712;9.400;2023-07-20T01:34:01;19.60;99.90
5850;DHT22;2951;47.712;9.400;2023-07-20T01:36:30;19.50;99.90
5850;DHT22;2951;47.712;9.400;2023-07-20T01:38:57;19.60;99.90
5850;DHT22;2951;47.712;9.400;2023-07-20T01:41:24;19.80;99.90
5850;DHT22;2951;47.712;9.400;2023-07-20T01:43:51;19.90;99.90
5850;DHT22;2951;47.712;9.400;2023-07-20T01:46:18;19.90;99.90
5850;DHT22;2951;47.712;9.400;2023-07-20T01:48:45;20.00;99.90
5850;DHT22;2951;47.712;9.400;2023-07-20T01:51:12;20.10;99.90
5850;DHT22;2951;47.712;9.400;2023-07-20T01:53:38;20.20;99.90
5850;DHT22;2951;47.712;9.400;2023-07-20T01:56:05;20.20;99.90
5850;DHT22;2951;47.712;9.400;2023-07-20T01:58:32;20.10;99.90
5850;DHT22;2951;47.712;9.400;2023-07-20T02:00:59;20.20;99.90
5850;DHT22;2951;47.712;9.400;2023-07-20T02:03:25;20.20;99.90
5850;DHT22;2951;47.712;9.400;2023-07-20T02:05:53;20.20;99.90
5850;DHT22;2951;47.712;9.400;2023-07-20T02:08:19;20.20;99.90
5850;DHT22;2951;47.712;9.400;2023-07-20T02:10:47;20.10;99.90
5850;DHT22;2951;47.712;9.400;2023-07-20T02:13:14;20.10;99.90
5850;DHT22;2951;47.712;9.400;2023-07-20T02:15:41;20.20;99.90
5850;DHT22;2951;47.712;9.400;2023-07-20T02:18:08;20.20;99.90
5850;DHT22;2951;47.712;9.400;2023-07-20T02:20:35;20.20;99.90
5850;DHT22;2951;47.712;9.400;2023-07-20T02:23:02;20.20;99.90
5850;DHT22;2951;47.712;9.400;2023-07-20T02:25:29;20.10;99.90
5850;DHT22;2951;47.712;9.400;2023-07-20T02:27:56;20.10;99.90
5850;DHT22;2951;47.712;9.400;2023-07-20T02:30:23;20.10;99.90
5850;DHT22;2951;47.712;9.400;2023-07-20T02:32:49;20.10;99.90
5850;DHT22;2951;47.712;9.400;2023-07-20T02:35:16;20.00;99.90
5850;DHT22;2951;47.712;9.400;2023-07-20T02:37:43;19.90;99.90
5850;DHT22;2951;47.712;9.400;2023-07-20T02:40:10;19.80;99.90
5850;DHT22;2951;47.712;9.400;2023-07-20T02:42:38;19.90;99.90
5850;DHT22;2951;47.712;9.400;2023-07-20T02:45:04;19.80;99.90
5850;DHT22;2951;47.712;9.400;2023-07-20T02:47:31;19.80;99.90
5850;DHT22;2951;47.712;9.400;2023-07-20T02:49:58;19.80;99.90
5850;DHT22;2951;47.712;9.400;2023-07-20T02:52:25;19.70;99.90
5850;DHT22;2951;47.712;9.400;2023-07-20T02:54:51;19.60;99.90
5850;DHT22;2951;47.712;9.400;2023-07-20T02:57:18;19.50;99.90
5850;DHT22;2951;47.712;9.400;2023-07-20T02:59:45;19.50;99.90
5850;DHT22;2951;47.712;9.400;2023-07-20T03:02:11;19.60;99.90
5850;DHT22;2951;47.712;9.400;2023-07-20T03:04:38;19.60;99.90
5850;DHT22;2951;47.712;9.400;2023-07-20T03:07:05;19.50;99.90
5850;DHT22;2951;47.712;9.400;2023-07-20T03:09:33;19.50;99.90
5850;DHT22;2951;47.712;9.400;2023-07-20T03:12:00;19.50;99.90
5850;DHT22;2951;47.712;9.400;2023-07-20T03:14:27;19.40;99.90
5850;DHT22;2951;47.712;9.400;2023-07-20T03:16:54;19.30;99.90
5850;DHT22;2951;47.712;9.400;2023-07-20T03:19:21;19.40;99.90
5850;DHT22;2951;47.712;9.400;2023-07-20T03:21:47;19.40;99.90
5850;DHT22;2951;47.712;9.400;2023-07-20T03:24:14;19.40;99.90
5850;DHT22;2951;47.712;9.400;2023-07-20T03:26:41;19.40;99.90
5850;DHT22;2951;47.712;9.400;2023-07-20T03:29:08;19.50;99.90
5850;DHT22;2951;47.712;9.400;2023-07-20T03:31:34;19.40;99.90
5850;DHT22;2951;47.712;9.400;2023-07-20T03:34:01;19.30;99.90
5850;DHT22;2951;47.712;9.400;2023-07-20T03:36:28;19.10;99.90
5850;DHT22;2951;47.712;9.400;2023-07-20T03:38:54;19.00;99.90
5850;DHT22;2951;47.712;9.400;2023-07-20T03:41:21;18.90;99.90
5850;DHT22;2951;47.712;9.400;2023-07-20T03:43:48;19.00;99.90
5850;DHT22;2951;47.712;9.400;2023-07-20T03:46:15;19.00;99.90
5850;DHT22;2951;47.712;9.400;2023-07-20T03:48:44;19.00;99.90
5850;DHT22;2951;47.712;9.400;2023-07-20T03:51:10;19.00;99.90
5850;DHT22;2951;47.712;9.400;2023-07-20T03:53:37;19.00;99.90
5850;DHT22;2951;47.712;9.400;2023-07-20T03:56:05;19.00;99.90
5850;DHT22;2951;47.712;9.400;2023-07-20T03:58:32;19.00;99.90
5850;DHT22;2951;47.712;9.400;2023-07-20T04:00:58;19.00;99.90
5850;DHT22;2951;47.712;9.400;2023-07-20T04:03:25;19.10;99.90
5850;DHT22;2951;47.712;9.400;2023-07-20T04:05:53;19.10;99.90
5850;DHT22;2951;47.712;9.400;2023-07-20T04:08:22;19.10;99.90
5850;DHT22;2951;47.712;9.400;2023-07-20T04:10:49;19.10;99.90
5850;DHT22;2951;47.712;9.400;2023-07-20T04:13:16;19.10;99.90
5850;DHT22;2951;47.712;9.400;2023-07-20T04:15:42;19.10;99.90
5850;DHT22;2951;47.712;9.400;2023-07-20T04:18:09;19.10;99.90
5850;DHT22;2951;47.712;9.400;2023-07-20T04:20:36;19.10;99.90
5850;DHT22;2951;47.712;9.400;2023-07-20T04:23:03;19.00;99.90
5850;DHT22;2951;47.712;9.400;2023-07-20T04:25:29;19.00;99.90
5850;DHT22;2951;47.712;9.400;2023-07-20T04:28:00;18.90;99.90
5850;DHT22;2951;47.712;9.400;2023-07-20T04:30:26;19.00;99.90
5850;DHT22;2951;47.712;9.400;2023-07-20T04:32:53;19.00;99.90
5850;DHT22;2951;47.712;9.400;2023-07-20T04:38:05;19.00;99.90
5850;DHT22;2951;47.712;9.400;2023-07-20T04:40:32;19.00;99.90
5850;DHT22;2951;47.712;9.400;2023-07-20T04:42:59;19.10;99.90
5850;DHT22;2951;47.712;9.400;2023-07-20T04:45:26;19.20;99.90
5850;DHT22;2951;47.712;9.400;2023-07-20T04:47:52;19.30;99.90
5850;DHT22;2951;47.712;9.400;2023-07-20T04:50:19;19.50;99.90
5850;DHT22;2951;47.712;9.400;2023-07-20T04:52:46;19.50;99.90
5850;DHT22;2951;47.712;9.400;2023-07-20T04:55:13;19.70;99.90
5850;DHT22;2951;47.712;9.400;2023-07-20T04:57:39;19.70;99.90
5850;DHT22;2951;47.712;9.400;2023-07-20T05:00:06;19.70;99.90
5850;DHT22;2951;47.712;9.400;2023-07-20T05:02:33;19.80;99.90
5850;DHT22;2951;47.712;9.400;2023-07-20T05:05:00;19.60;99.90
5850;DHT22;2951;47.712;9.400;2023-07-20T05:07:27;19.50;99.90
5850;DHT22;2951;47.712;9.400;2023-07-20T05:09:54;19.60;99.90
5850;DHT22;2951;47.712;9.400;2023-07-20T05:12:21;19.60;99.90
5850;DHT22;2951;47.712;9.400;2023-07-20T05:14:47;19.70;99.90
5850;DHT22;2951;47.712;9.400;2023-07-20T05:17:14;19.70;99.90
5850;DHT22;2951;47.712;9.400;2023-07-20T05:19:41;19.70;99.90
5850;DHT22;2951;47.712;9.400;2023-07-20T05:22:10;19.80;99.90
5850;DHT22;2951;47.712;9.400;2023-07-20T05:24:38;19.80;99.90
5850;DHT22;2951;47.712;9.400;2023-07-20T05:27:05;19.80;99.90
5850;DHT22;2951;47.712;9.400;2023-07-20T05:29:32;19.80;99.90
5850;DHT22;2951;47.712;9.400;2023-07-20T05:31:59;19.80;99.90
5850;DHT22;2951;47.712;9.400;2023-07-20T05:34:26;19.80;99.90
5850;DHT22;2951;47.712;9.400;2023-07-20T05:36:53;19.70;99.90
5850;DHT22;2951;47.712;9.400;2023-07-20T05:39:19;19.70;99.90
5850;DHT22;2951;47.712;9.400;2023-07-20T05:41:46;19.70;99.90
5850;DHT22;2951;47.712;9.400;2023-07-20T05:44:13;19.90;99.90
5850;DHT22;2951;47.712;9.400;2023-07-20T05:46:40;20.10;99.90
5850;DHT22;2951;47.712;9.400;2023-07-20T05:49:20;20.30;99.90
5850;DHT22;2951;47.712;9.400;2023-07-20T05:51:47;20.50;99.90
5850;DHT22;2951;47.712;9.400;2023-07-20T05:54:14;20.60;99.90
5850;DHT22;2951;47.712;9.400;2023-07-20T05:56:41;20.80;99.90
5850;DHT22;2951;47.712;9.400;2023-07-20T05:59:07;20.70;99.90
5850;DHT22;2951;47.712;9.400;2023-07-20T06:01:34;20.60;99.90
5850;DHT22;2951;47.712;9.400;2023-07-20T06:04:01;20.70;99.90
5850;DHT22;2951;47.712;9.400;2023-07-20T06:06:27;20.80;99.90
5850;DHT22;2951;47.712;9.400;2023-07-20T06:08:54;20.80;99.90
5850;DHT22;2951;47.712;9.400;2023-07-20T06:11:21;20.90;99.90
5850;DHT22;2951;47.712;9.400;2023-07-20T06:13:47;21.00;99.90
5850;DHT22;2951;47.712;9.400;2023-07-20T06:16:14;21.00;99.90
5850;DHT22;2951;47.712;9.400;2023-07-20T06:18:41;21.10;99.90
5850;DHT22;2951;47.712;9.400;2023-07-20T06:21:08;20.90;99.90
5850;DHT22;2951;47.712;9.400;2023-07-20T06:23:34;20.70;99.90
5850;DHT22;2951;47.712;9.400;2023-07-20T06:26:01;20.70;99.90
5850;DHT22;2951;47.712;9.400;2023-07-20T06:28:28;20.70;99.90
5850;DHT22;2951;47.712;9.400;2023-07-20T06:31:01;20.70;99.90
5850;DHT22;2951;47.712;9.400;2023-07-20T06:33:27;20.70;99.90
5850;DHT22;2951;47.712;9.400;2023-07-20T06:35:54;20.70;99.90
5850;DHT22;2951;47.712;9.400;2023-07-20T06:38:23;20.90;99.90
5850;DHT22;2951;47.712;9.400;2023-07-20T06:40:52;20.80;99.90
5850;DHT22;2951;47.712;9.400;2023-07-20T06:43:19;20.80;99.90
5850;DHT22;2951;47.712;9.400;2023-07-20T06:45:52;20.90;99.90
5850;DHT22;2951;47.712;9.400;2023-07-20T06:48:20;20.80;99.90
5850;DHT22;2951;47.712;9.400;2023-07-20T06:50:47;21.00;99.90
5850;DHT22;2951;47.712;9.400;2023-07-20T06:53:14;21.10;99.90
5850;DHT22;2951;47.712;9.400;2023-07-20T06:55:44;21.30;99.90
5850;DHT22;2951;47.712;9.400;2023-07-20T06:58:10;21.50;99.90
5850;DHT22;2951;47.712;9.400;2023-07-20T07:00:37;21.50;99.90
5850;DHT22;2951;47.712;9.400;2023-07-20T07:03:04;21.60;99.90
5850;DHT22;2951;47.712;9.400;2023-07-20T07:05:31;21.50;99.90
5850;DHT22;2951;47.712;9.400;2023-07-20T07:08:00;21.70;99.90
5850;DHT22;2951;47.712;9.400;2023-07-20T07:10:27;21.40;99.90
5850;DHT22;2951;47.712;9.400;2023-07-20T07:12:54;21.40;99.90
5850;DHT22;2951;47.712;9.400;2023-07-20T07:15:20;21.50;99.90
5850;DHT22;2951;47.712;9.400;2023-07-20T07:17:47;21.70;99.90
5850;DHT22;2951;47.712;9.400;2023-07-20T07:20:14;21.90;99.90
5850;DHT22;2951;47.712;9.400;2023-07-20T07:22:44;22.10;99.90
5850;DHT22;2951;47.712;9.400;2023-07-20T07:25:12;22.20;99.90
5850;DHT22;2951;47.712;9.400;2023-07-20T07:27:39;22.10;99.90
5850;DHT22;2951;47.712;9.400;2023-07-20T07:30:05;22.10;99.90
5850;DHT22;2951;47.712;9.400;2023-07-20T07:32:32;21.90;99.90
5850;DHT22;2951;47.712;9.400;2023-07-20T07:34:59;22.10;99.90
5850;DHT22;2951;47.712;9.400;2023-07-20T07:37:27;22.10;99.90
5850;DHT22;2951;47.712;9.400;2023-07-20T07:39:53;22.10;99.90
5850;DHT22;2951;47.712;9.400;2023-07-20T07:42:20;21.90;99.90
5850;DHT22;2951;47.712;9.400;2023-07-20T07:44:49;21.90;99.90
5850;DHT22;2951;47.712;9.400;2023-07-20T07:47:16;22.00;99.90
5850;DHT22;2951;47.712;9.400;2023-07-20T07:49:42;22.20;99.90
5850;DHT22;2951;47.712;9.400;2023-07-20T07:52:12;22.20;99.90
5850;DHT22;2951;47.712;9.400;2023-07-20T07:54:40;22.20;99.90
5850;DHT22;2951;47.712;9.400;2023-07-20T07:57:07;22.00;99.90
5850;DHT22;2951;47.712;9.400;2023-07-20T07:59:33;21.80;99.90
5850;DHT22;2951;47.712;9.400;2023-07-20T08:02:04;21.80;99.90
5850;DHT22;2951;47.712;9.400;2023-07-20T08:04:31;21.90;99.90
5850;DHT22;2951;47.712;9.400;2023-07-20T08:06:58;21.90;99.90
5850;DHT22;2951;47.712;9.400;2023-07-20T08:09:25;21.90;99.90
5850;DHT22;2951;47.712;9.400;2023-07-20T08:11:52;21.90;99.90
5850;DHT22;2951;47.712;9.400;2023-07-20T08:14:19;22.00;99.90
5850;DHT22;2951;47.712;9.400;2023-07-20T08:16:46;21.90;99.90
5850;DHT22;2951;47.712;9.400;2023-07-20T08:19:14;22.00;99.90
5850;DHT22;2951;47.712;9.400;2023-07-20T08:21:41;21.90;99.90
5850;DHT22;2951;47.712;9.400;2023-07-20T08:24:07;21.80;99.90
5850;DHT22;2951;47.712;9.400;2023-07-20T08:26:34;21.90;99.90
5850;DHT22;2951;47.712;9.400;2023-07-20T08:29:01;22.20;99.90
5850;DHT22;2951;47.712;9.400;2023-07-20T08:31:27;22.50;99.90
5850;DHT22;2951;47.712;9.400;2023-07-20T08:33:54;22.50;99.90
5850;DHT22;2951;47.712;9.400;2023-07-20T08:36:23;22.40;99.90
5850;DHT22;2951;47.712;9.400;2023-07-20T08:38:50;22.40;99.90
5850;DHT22;2951;47.712;9.400;2023-07-20T08:41:18;22.50;99.90
5850;DHT22;2951;47.712;9.400;2023-07-20T08:43:45;22.60;99.90
5850;DHT22;2951;47.712;9.400;2023-07-20T08:46:13;22.70;99.90
5850;DHT22;2951;47.712;9.400;2023-07-20T08:48:41;22.50;99.90
5850;DHT22;2951;47.712;9.400;2023-07-20T08:51:08;22.50;99.90
5850;DHT22;2951;47.712;9.400;2023-07-20T08:53:35;22.60;99.90
5850;DHT22;2951;47.712;9.400;2023-07-20T08:56:02;22.60;99.90
5850;DHT22;2951;47.712;9.400;2023-07-20T08:58:30;22.60;99.90
5850;DHT22;2951;47.712;9.400;2023-07-20T09:00:57;22.60;99.90
5850;DHT22;2951;47.712;9.400;2023-07-20T09:03:26;22.60;99.90
5850;DHT22;2951;47.712;9.400;2023-07-20T09:05:52;22.60;99.90
5850;DHT22;2951;47.712;9.400;2023-07-20T09:08:20;22.70;99.90
5850;DHT22;2951;47.712;9.400;2023-07-20T09:10:46;23.00;99.90
5850;DHT22;2951;47.712;9.400;2023-07-20T09:13:14;23.20;99.90
5850;DHT22;2951;47.712;9.400;2023-07-20T09:15:47;23.00;99.90
5850;DHT22;2951;47.712;9.400;2023-07-20T09:18:23;23.10;99.90
5850;DHT22;2951;47.712;9.400;2023-07-20T09:20:49;23.20;99.90
5850;DHT22;2951;47.712;9.400;2023-07-20T09:23:16;23.10;99.90
5850;DHT22;2951;47.712;9.400;2023-07-20T09:25:46;23.30;99.90
5850;DHT22;2951;47.712;9.400;2023-07-20T09:28:17;22.90;99.90
5850;DHT22;2951;47.712;9.400;2023-07-20T09:30:44;23.00;99.90
5850;DHT22;2951;47.712;9.400;2023-07-20T09:33:19;23.10;99.90
5850;DHT22;2951;47.712;9.400;2023-07-20T09:35:50;23.70;99.90
5850;DHT22;2951;47.712;9.400;2023-07-20T09:38:21;24.10;99.90
5850;DHT22;2951;47.712;9.400;2023-07-20T09:40:50;24.50;99.90
5850;DHT22;2951;47.712;9.400;2023-07-20T09:43:20;24.70;99.90
5850;DHT22;2951;47.712;9.400;2023-07-20T09:45:51;24.90;99.90
5850;DHT22;2951;47.712;9.400;2023-07-20T09:48:24;25.00;99.90
5850;DHT22;2951;47.712;9.400;2023-07-20T09:50:55;24.70;99.90
5850;DHT22;2951;47.712;9.400;2023-07-20T09:53:23;24.20;99.90
5850;DHT22;2951;47.712;9.400;2023-07-20T09:55:50;23.70;99.90
5850;DHT22;2951;47.712;9.400;2023-07-20T09:58:18;24.10;99.90
5850;DHT22;2951;47.712;9.400;2023-07-20T10:00:45;24.00;99.90
5850;DHT22;2951;47.712;9.400;2023-07-20T10:03:21;23.90;99.90
5850;DHT22;2951;47.712;9.400;2023-07-20T10:06:02;23.90;99.90
5850;DHT22;2951;47.712;9.400;2023-07-20T10:08:30;24.00;99.90
5850;DHT22;2951;47.712;9.400;2023-07-20T10:11:02;24.30;99.90
5850;DHT22;2951;47.712;9.400;2023-07-20T10:13:29;24.60;99.90
5850;DHT22;2951;47.712;9.400;2023-07-20T10:16:03;24.80;99.90
5850;DHT22;2951;47.712;9.400;2023-07-20T10:18:36;24.70;99.90
5850;DHT22;2951;47.712;9.400;2023-07-20T10:21:05;24.80;99.90
5850;DHT22;2951;47.712;9.400;2023-07-20T10:23:35;25.20;99.90
5850;DHT22;2951;47.712;9.400;2023-07-20T10:26:03;25.20;99.90
5850;DHT22;2951;47.712;9.400;2023-07-20T10:28:30;24.70;99.90
5850;DHT22;2951;47.712;9.400;2023-07-20T10:30:57;24.70;99.90
5850;DHT22;2951;47.712;9.400;2023-07-20T10:33:24;24.40;99.90
5850;DHT22;2951;47.712;9.400;2023-07-20T10:35:52;24.70;99.90
5850;DHT22;2951;47.712;9.400;2023-07-20T10:38:19;24.60;99.90
5850;DHT22;2951;47.712;9.400;2023-07-20T10:40:55;24.60;99.90
5850;DHT22;2951;47.712;9.400;2023-07-20T10:43:22;24.80;99.90
5850;DHT22;2951;47.712;9.400;2023-07-20T10:45:50;25.00;99.90
5850;DHT22;2951;47.712;9.400;2023-07-20T10:48:18;25.00;99.90
5850;DHT22;2951;47.712;9.400;2023-07-20T10:50:48;24.80;99.90
5850;DHT22;2951;47.712;9.400;2023-07-20T10:53:32;24.90;99.90
5850;DHT22;2951;47.712;9.400;2023-07-20T10:56:09;24.90;99.90
5850;DHT22;2951;47.712;9.400;2023-07-20T10:58:37;25.00;99.90
5850;DHT22;2951;47.712;9.400;2023-07-20T11:01:04;25.00;99.90
5850;DHT22;2951;47.712;9.400;2023-07-20T11:03:33;24.80;99.90
5850;DHT22;2951;47.712;9.400;2023-07-20T11:08:50;24.80;99.90
5850;DHT22;2951;47.712;9.400;2023-07-20T11:11:21;25.00;99.90
5850;DHT22;2951;47.712;9.400;2023-07-20T11:13:58;25.00;99.90
5850;DHT22;2951;47.712;9.400;2023-07-20T11:16:35;25.50;99.90
5850;DHT22;2951;47.712;9.400;2023-07-20T11:19:03;25.50;99.90
5850;DHT22;2951;47.712;9.400;2023-07-20T11:21:34;25.40;99.90
5850;DHT22;2951;47.712;9.400;2023-07-20T11:24:10;25.60;99.90
5850;DHT22;2951;47.712;9.400;2023-07-20T11:26:42;26.00;99.90
5850;DHT22;2951;47.712;9.400;2023-07-20T11:29:09;26.40;99.90
5850;DHT22;2951;47.712;9.400;2023-07-20T11:31:46;26.30;99.90
5850;DHT22;2951;47.712;9.400;2023-07-20T11:34:18;26.00;99.90
5850;DHT22;2951;47.712;9.400;2023-07-20T11:36:46;25.20;99.90
5850;DHT22;2951;47.712;9.400;2023-07-20T11:39:16;25.40;99.90
5850;DHT22;2951;47.712;9.400;2023-07-20T11:41:46;25.30;99.90
5850;DHT22;2951;47.712;9.400;2023-07-20T11:44:13;25.20;99.90
5850;DHT22;2951;47.712;9.400;2023-07-20T11:46:39;25.30;99.90
5850;DHT22;2951;47.712;9.400;2023-07-20T11:49:07;25.20;99.90
5850;DHT22;2951;47.712;9.400;2023-07-20T11:51:34;25.60;99.90
5850;DHT22;2951;47.712;9.400;2023-07-20T11:54:01;25.60;99.90
5850;DHT22;2951;47.712;9.400;2023-07-20T11:56:28;25.30;99.90
5850;DHT22;2951;47.712;9.400;2023-07-20T11:58:55;25.40;99.90
5850;DHT22;2951;47.712;9.400;2023-07-20T12:01:23;24.80;99.90
5850;DHT22;2951;47.712;9.400;2023-07-20T12:03:50;25.10;99.90
5850;DHT22;2951;47.712;9.400;2023-07-20T12:06:17;25.50;99.90
5850;DHT22;2951;47.712;9.400;2023-07-20T12:08:44;25.50;99.90
5850;DHT22;2951;47.712;9.400;2023-07-20T12:11:11;25.70;99.90
5850;DHT22;2951;47.712;9.400;2023-07-20T12:13:44;25.50;99.90
5850;DHT22;2951;47.712;9.400;2023-07-20T12:16:11;25.30;99.90
5850;DHT22;2951;47.712;9.400;2023-07-20T12:18:40;25.60;99.90
5850;DHT22;2951;47.712;9.400;2023-07-20T12:21:07;26.30;99.90
5850;DHT22;2951;47.712;9.400;2023-07-20T12:23:35;26.20;99.90
5850;DHT22;2951;47.712;9.400;2023-07-20T12:26:03;26.10;99.90
5850;DHT22;2951;47.712;9.400;2023-07-20T12:28:32;26.10;99.90
5850;DHT22;2951;47.712;9.400;2023-07-20T12:30:58;26.00;99.90
5850;DHT22;2951;47.712;9.400;2023-07-20T12:33:25;26.50;99.90
5850;DHT22;2951;47.712;9.400;2023-07-20T12:35:52;26.30;99.90
5850;DHT22;2951;47.712;9.400;2023-07-20T12:38:22;26.60;99.90
5850;DHT22;2951;47.712;9.400;2023-07-20T12:40:49;26.70;99.90
5850;DHT22;2951;47.712;9.400;2023-07-20T12:43:16;26.80;99.90
5850;DHT22;2951;47.712;9.400;2023-07-20T12:45:43;26.70;99.90
5850;DHT22;2951;47.712;9.400;2023-07-20T12:48:10;27.00;99.90
5850;DHT22;2951;47.712;9.400;2023-07-20T12:50:36;27.00;99.90
5850;DHT22;2951;47.712;9.400;2023-07-20T12:53:03;26.50;99.90
5850;DHT22;2951;47.712;9.400;2023-07-20T12:55:30;26.40;99.90
5850;DHT22;2951;47.712;9.400;2023-07-20T12:57:56;26.00;99.90
5850;DHT22;2951;47.712;9.400;2023-07-20T13:00:23;26.20;99.90
5850;DHT22;2951;47.712;9.400;2023-07-20T13:02:50;26.40;99.90
5850;DHT22;2951;47.712;9.400;2023-07-20T13:05:35;26.60;99.90
5850;DHT22;2951;47.712;9.400;2023-07-20T13:08:05;26.30;99.90
5850;DHT22;2951;47.712;9.400;2023-07-20T13:10:35;26.30;99.90
5850;DHT22;2951;47.712;9.400;2023-07-20T13:13:01;26.30;99.90
5850;DHT22;2951;47.712;9.400;2023-07-20T13:15:32;26.50;99.90
5850;DHT22;2951;47.712;9.400;2023-07-20T13:17:59;26.70;99.90
5850;DHT22;2951;47.712;9.400;2023-07-20T13:20:26;27.00;99.90
5850;DHT22;2951;47.712;9.400;2023-07-20T13:22:54;27.40;99.90
5850;DHT22;2951;47.712;9.400;2023-07-20T13:25:21;27.20;99.90
5850;DHT22;2951;47.712;9.400;2023-07-20T13:27:48;27.20;99.90
5850;DHT22;2951;47.712;9.400;2023-07-20T13:30:14;27.10;99.90
5850;DHT22;2951;47.712;9.400;2023-07-20T13:32:43;26.80;99.90
5850;DHT22;2951;47.712;9.400;2023-07-20T13:35:11;26.50;99.90
5850;DHT22;2951;47.712;9.400;2023-07-20T13:37:38;26.80;99.90
5850;DHT22;2951;47.712;9.400;2023-07-20T13:40:05;26.70;99.90
5850;DHT22;2951;47.712;9.400;2023-07-20T13:42:33;27.00;99.90
5850;DHT22;2951;47.712;9.400;2023-07-20T13:44:59;27.30;99.90
5850;DHT22;2951;47.712;9.400;2023-07-20T13:47:26;27.30;99.90
5850;DHT22;2951;47.712;9.400;2023-07-20T13:49:54;27.50;99.90
5850;DHT22;2951;47.712;9.400;2023-07-20T13:52:29;27.40;99.90
5850;DHT22;2951;47.712;9.400;2023-07-20T13:54:59;27.20;99.90
5850;DHT22;2951;47.712;9.400;2023-07-20T13:57:26;27.30;99.90
5850;DHT22;2951;47.712;9.400;2023-07-20T13:59:53;27.30;99.90
5850;DHT22;2951;47.712;9.400;2023-07-20T14:02:20;27.10;99.90
5850;DHT22;2951;47.712;9.400;2023-07-20T14:04:49;27.40;99.90
5850;DHT22;2951;47.712;9.400;2023-07-20T14:07:36;28.20;99.90
5850;DHT22;2951;47.712;9.400;2023-07-20T14:10:03;28.60;99.90
5850;DHT22;2951;47.712;9.400;2023-07-20T14:12:33;29.20;99.90
5850;DHT22;2951;47.712;9.400;2023-07-20T14:15:00;29.30;99.90
5850;DHT22;2951;47.712;9.400;2023-07-20T14:17:26;29.50;99.90
5850;DHT22;2951;47.712;9.400;2023-07-20T14:19:53;30.20;99.90
5850;DHT22;2951;47.712;9.400;2023-07-20T14:22:20;30.80;99.90
5850;DHT22;2951;47.712;9.400;2023-07-20T14:24:46;30.70;99.90
5850;DHT22;2951;47.712;9.400;2023-07-20T14:27:13;31.00;99.90
5850;DHT22;2951;47.712;9.400;2023-07-20T14:29:40;30.40;99.90
5850;DHT22;2951;47.712;9.400;2023-07-20T14:32:06;29.90;99.90
5850;DHT22;2951;47.712;9.400;2023-07-20T14:34:34;29.40;99.90
5850;DHT22;2951;47.712;9.400;2023-07-20T14:37:03;29.30;99.90
5850;DHT22;2951;47.712;9.400;2023-07-20T14:39:30;29.40;99.90
5850;DHT22;2951;47.712;9.400;2023-07-20T14:41:58;29.60;99.90
5850;DHT22;2951;47.712;9.400;2023-07-20T14:44:25;29.80;99.90
5850;DHT22;2951;47.712;9.400;2023-07-20T14:46:51;30.10;99.90
5850;DHT22;2951;47.712;9.400;2023-07-20T14:49:36;30.40;99.90
5850;DHT22;2951;47.712;9.400;2023-07-20T14:52:03;31.00;99.90
5850;DHT22;2951;47.712;9.400;2023-07-20T14:54:41;31.40;99.90
5850;DHT22;2951;47.712;9.400;2023-07-20T14:57:07;31.10;99.90
5850;DHT22;2951;47.712;9.400;2023-07-20T14:59:40;31.10;99.90
5850;DHT22;2951;47.712;9.400;2023-07-20T15:02:10;30.50;99.90
5850;DHT22;2951;47.712;9.400;2023-07-20T15:04:37;31.00;99.90
5850;DHT22;2951;47.712;9.400;2023-07-20T15:07:04;31.00;99.90
5850;DHT22;2951;47.712;9.400;2023-07-20T15:09:31;31.10;99.90
5850;DHT22;2951;47.712;9.400;2023-07-20T15:11:58;31.20;99.90
5850;DHT22;2951;47.712;9.400;2023-07-20T15:14:25;30.70;99.90
5850;DHT22;2951;47.712;9.400;2023-07-20T15:16:51;30.70;99.90
5850;DHT22;2951;47.712;9.400;2023-07-20T15:19:18;29.60;99.90
5850;DHT22;2951;47.712;9.400;2023-07-20T15:21:44;29.90;99.90
5850;DHT22;2951;47.712;9.400;2023-07-20T15:24:11;30.50;99.90
5850;DHT22;2951;47.712;9.400;2023-07-20T15:26:38;31.00;99.90
5850;DHT22;2951;47.712;9.400;2023-07-20T15:29:05;32.10;99.90
5850;DHT22;2951;47.712;9.400;2023-07-20T15:31:32;31.50;99.90
5850;DHT22;2951;47.712;9.400;2023-07-20T15:34:02;31.90;99.90
5850;DHT22;2951;47.712;9.400;2023-07-20T15:36:29;32.50;99.90
5850;DHT22;2951;47.712;9.400;2023-07-20T15:38:56;32.50;99.90
5850;DHT22;2951;47.712;9.400;2023-07-20T15:41:24;32.20;99.90
5850;DHT22;2951;47.712;9.400;2023-07-20T15:43:51;32.30;99.90
5850;DHT22;2951;47.712;9.400;2023-07-20T15:48:46;31.90;99.90
5850;DHT22;2951;47.712;9.400;2023-07-20T15:51:12;31.50;99.90
5850;DHT22;2951;47.712;9.400;2023-07-20T15:53:40;31.90;99.90
5850;DHT22;2951;47.712;9.400;2023-07-20T15:56:07;32.10;99.90
5850;DHT22;2951;47.712;9.400;2023-07-20T15:58:33;32.20;99.90
5850;DHT22;2951;47.712;9.400;2023-07-20T16:01:00;32.50;99.90
5850;DHT22;2951;47.712;9.400;2023-07-20T16:03:27;31.10;99.90
5850;DHT22;2951;47.712;9.400;2023-07-20T16:06:03;30.90;99.90
5850;DHT22;2951;47.712;9.400;2023-07-20T16:08:31;31.20;99.90
5850;DHT22;2951;47.712;9.400;2023-07-20T16:10:58;30.00;99.90
5850;DHT22;2951;47.712;9.400;2023-07-20T16:13:26;30.30;99.90
5850;DHT22;2951;47.712;9.400;2023-07-20T16:15:53;29.90;99.90
5850;DHT22;2951;47.712;9.400;2023-07-20T16:18:20;30.40;99.90
5850;DHT22;2951;47.712;9.400;2023-07-20T16:20:47;30.50;99.90
5850;DHT22;2951;47.712;9.400;2023-07-20T16:23:14;30.30;99.90
5850;DHT22;2951;47.712;9.400;2023-07-20T16:25:44;29.90;99.90